createdAt,value
2018-11-12T00:01:50.805Z,99.50
2018-11-12T00:04:19.161Z,99.50
2018-11-12T00:06:47.635Z,99.40
2018-11-12T00:09:16.045Z,99.40
2018-11-12T00:11:44.403Z,99.20
2018-11-12T00:14:12.911Z,99.10
2018-11-12T00:16:41.453Z,98.90
2018-11-12T00:19:10.840Z,99.20
2018-11-12T00:21:39.358Z,98.90
2018-11-12T00:24:07.928Z,98.80
2018-11-12T00:26:36.283Z,98.60
2018-11-12T00:29:04.470Z,98.40
2018-11-12T00:31:32.663Z,98.60
2018-11-12T00:34:00.903Z,98.10
2018-11-12T00:36:29.033Z,98.20
2018-11-12T00:38:57.312Z,98.30
2018-11-12T00:41:25.467Z,98.50
2018-11-12T00:43:53.632Z,98.80
2018-11-12T00:46:31.148Z,99.10
2018-11-12T00:48:59.395Z,99.20
2018-11-12T00:51:27.509Z,99.40
2018-11-12T00:53:55.715Z,99.30
2018-11-12T00:56:23.894Z,99.40
2018-11-12T00:58:52.054Z,99.60
2018-11-12T01:01:20.218Z,99.70
2018-11-12T01:03:48.337Z,99.90
2018-11-12T01:06:23.202Z,99.90
2018-11-12T01:08:51.850Z,99.60
2018-11-12T01:11:20.028Z,99.60
2018-11-12T01:13:48.148Z,99.70
2018-11-12T01:16:16.425Z,99.80
2018-11-12T01:18:44.545Z,99.30
2018-11-12T01:21:12.700Z,99.30
2018-11-12T01:23:40.990Z,99.20
2018-11-12T01:26:09.164Z,99.20
2018-11-12T01:28:37.395Z,99.10
2018-11-12T01:31:06.704Z,99.20
2018-11-12T01:33:36.512Z,99.30
2018-11-12T01:36:05.269Z,99.30
2018-11-12T01:38:33.473Z,99.50
2018-11-12T01:41:01.615Z,99.70
2018-11-12T01:43:29.732Z,99.90
2018-11-12T01:45:57.980Z,99.90
2018-11-12T01:48:26.184Z,99.90
2018-11-12T01:50:54.392Z,99.90
2018-11-12T01:53:23.381Z,99.90
2018-11-12T01:55:51.613Z,99.90
2018-11-12T01:58:19.856Z,99.90
2018-11-12T02:00:48.020Z,99.90
2018-11-12T02:03:16.218Z,99.90
2018-11-12T02:05:44.372Z,99.90
2018-11-12T02:08:12.760Z,99.90
2018-11-12T02:10:40.901Z,99.90
2018-11-12T02:13:09.076Z,99.90
2018-11-12T02:15:37.332Z,99.90
2018-11-12T02:18:05.658Z,99.90
2018-11-12T02:20:33.903Z,99.90
2018-11-12T02:23:02.085Z,99.90
2018-11-12T02:25:30.285Z,99.90
2018-11-12T02:27:58.489Z,99.90
2018-11-12T02:30:32.285Z,99.80
2018-11-12T02:33:00.479Z,99.90
2018-11-12T02:35:28.640Z,99.90
2018-11-12T02:37:56.797Z,99.90
2018-11-12T02:40:24.995Z,99.90
2018-11-12T02:42:53.243Z,99.90
2018-11-12T02:45:21.465Z,99.90
2018-11-12T02:47:49.703Z,99.90
2018-11-12T02:50:18.243Z,99.90
2018-11-12T02:52:46.399Z,99.90
2018-11-12T02:55:15.419Z,99.90
2018-11-12T02:57:44.376Z,99.90
2018-11-12T03:00:17.287Z,99.90
2018-11-12T03:02:45.718Z,99.90
2018-11-12T03:05:14.040Z,99.90
2018-11-12T03:07:42.640Z,99.90
2018-11-12T03:10:15.027Z,99.90
2018-11-12T03:12:43.499Z,99.90
2018-11-12T03:15:12.756Z,99.90
2018-11-12T03:17:41.657Z,99.90
2018-11-12T03:20:11.681Z,99.90
2018-11-12T03:22:39.899Z,99.90
2018-11-12T03:25:09.659Z,99.90
2018-11-12T03:27:37.969Z,99.90
2018-11-12T03:30:07.351Z,99.90
2018-11-12T03:32:35.507Z,99.90
2018-11-12T03:35:03.839Z,99.90
2018-11-12T03:37:32.045Z,99.90
2018-11-12T03:40:00.215Z,99.90
2018-11-12T03:42:28.363Z,99.90
2018-11-12T03:44:56.510Z,99.90
2018-11-12T03:47:24.691Z,99.90
2018-11-12T03:49:52.827Z,99.90
2018-11-12T03:52:21.123Z,99.90
2018-11-12T03:54:49.283Z,99.90
2018-11-12T03:57:17.437Z,99.90
2018-11-12T03:59:45.727Z,99.90
2018-11-12T04:02:13.963Z,99.90
2018-11-12T04:04:42.141Z,99.90
2018-11-12T04:07:10.289Z,99.90
2018-11-12T04:09:38.460Z,99.90
2018-11-12T04:12:06.684Z,99.90
2018-11-12T04:14:34.908Z,99.90
2018-11-12T04:17:03.054Z,99.90
2018-11-12T04:19:31.243Z,99.90
2018-11-12T04:21:59.400Z,99.90
2018-11-12T04:24:27.564Z,99.90
2018-11-12T04:26:55.719Z,99.90
2018-11-12T04:29:23.954Z,99.90
2018-11-12T04:31:52.358Z,99.90
2018-11-12T04:34:20.481Z,99.90
2018-11-12T04:36:48.680Z,99.90
2018-11-12T04:39:16.852Z,99.90
2018-11-12T04:41:45.032Z,99.90
2018-11-12T04:44:13.218Z,99.90
2018-11-12T04:46:41.432Z,99.90
2018-11-12T04:49:09.708Z,99.90
2018-11-12T04:51:37.880Z,99.90
2018-11-12T04:54:06.118Z,99.90
2018-11-12T04:56:34.288Z,99.90
2018-11-12T04:59:02.469Z,99.90
2018-11-12T05:01:30.644Z,99.90
2018-11-12T05:03:58.919Z,99.90
2018-11-12T05:06:27.158Z,99.90
2018-11-12T05:08:55.486Z,99.90
2018-11-12T05:11:23.728Z,99.90
2018-11-12T05:13:51.912Z,99.90
2018-11-12T05:16:20.025Z,99.90
2018-11-12T05:18:48.211Z,99.90
2018-11-12T05:21:16.444Z,99.90
2018-11-12T05:23:44.692Z,99.90
2018-11-12T05:26:12.896Z,99.90
2018-11-12T05:28:41.048Z,99.90
2018-11-12T05:31:09.245Z,99.90
2018-11-12T05:33:37.514Z,99.90
2018-11-12T05:36:05.976Z,99.90
2018-11-12T05:38:34.120Z,99.90
2018-11-12T05:41:02.326Z,99.90
2018-11-12T05:43:30.506Z,99.90
2018-11-12T05:45:58.685Z,99.90
2018-11-12T05:48:26.866Z,99.90
2018-11-12T05:50:55.053Z,99.90
2018-11-12T05:53:23.264Z,99.90
2018-11-12T05:55:51.450Z,99.90
2018-11-12T05:58:19.670Z,99.90
2018-11-12T06:00:47.791Z,99.90
2018-11-12T06:03:15.984Z,99.90
2018-11-12T06:05:44.144Z,99.90
2018-11-12T06:08:12.319Z,99.90
2018-11-12T06:10:41.771Z,99.90
2018-11-12T06:14:13.317Z,99.90
2018-11-12T06:16:41.489Z,99.90
2018-11-12T06:19:09.698Z,99.90
2018-11-12T06:21:37.901Z,99.90
2018-11-12T06:24:06.161Z,99.90
2018-11-12T06:26:34.331Z,99.90
2018-11-12T06:29:02.521Z,99.90
2018-11-12T06:31:30.815Z,99.90
2018-11-12T06:33:59.021Z,99.90
2018-11-12T06:36:27.221Z,99.90
2018-11-12T06:38:55.385Z,99.90
2018-11-12T06:41:23.631Z,99.90
2018-11-12T06:43:51.866Z,99.90
2018-11-12T06:46:20.045Z,99.90
2018-11-12T06:48:48.325Z,99.90
2018-11-12T06:51:16.483Z,99.90
2018-11-12T06:53:44.663Z,99.90
2018-11-12T06:56:12.883Z,99.90
2018-11-12T06:58:41.313Z,99.90
2018-11-12T07:01:09.497Z,99.90
2018-11-12T07:03:37.701Z,99.90
2018-11-12T07:06:05.923Z,99.90
2018-11-12T07:08:34.051Z,99.90
2018-11-12T07:11:02.398Z,99.90
2018-11-12T07:13:30.548Z,99.90
2018-11-12T07:15:58.782Z,99.90
2018-11-12T07:18:26.982Z,99.90
2018-11-12T07:20:55.209Z,99.90
2018-11-12T07:23:23.503Z,99.90
2018-11-12T07:25:51.719Z,99.90
2018-11-12T07:28:19.907Z,99.80
2018-11-12T07:30:48.101Z,99.20
2018-11-12T07:33:16.252Z,99.10
2018-11-12T07:35:44.440Z,98.90
2018-11-12T07:38:12.629Z,98.80
2018-11-12T07:40:40.831Z,98.60
2018-11-12T07:43:09.126Z,98.60
2018-11-12T07:45:37.816Z,98.40
2018-11-12T07:48:11.076Z,98.60
2018-11-12T07:50:41.157Z,98.20
2018-11-12T07:53:10.375Z,98.10
2018-11-12T07:55:39.538Z,98.10
2018-11-12T07:58:08.472Z,98.00
2018-11-12T08:00:37.758Z,97.90
2018-11-12T08:03:08.227Z,97.90
2018-11-12T08:05:37.163Z,97.80
2018-11-12T08:08:05.768Z,97.70
2018-11-12T08:10:35.217Z,97.30
2018-11-12T08:13:03.722Z,97.60
2018-11-12T08:15:32.970Z,97.70
2018-11-12T08:18:01.623Z,97.60
2018-11-12T08:20:30.038Z,97.40
2018-11-12T08:22:58.388Z,97.50
2018-11-12T08:25:26.598Z,97.50
2018-11-12T08:27:54.883Z,97.60
2018-11-12T08:30:26.196Z,97.70
2018-11-12T08:32:55.861Z,97.60
2018-11-12T08:35:24.532Z,97.50
2018-11-12T08:37:53.674Z,97.80
2018-11-12T08:40:23.312Z,97.60
2018-11-12T08:42:51.484Z,97.60
2018-11-12T08:45:19.734Z,97.60
2018-11-12T08:47:49.686Z,97.70
2018-11-12T08:50:19.437Z,97.60
2018-11-12T08:52:48.670Z,97.50
2018-11-12T08:55:18.327Z,97.50
2018-11-12T08:57:48.016Z,97.60
2018-11-12T09:00:16.838Z,97.00
2018-11-12T09:02:45.434Z,97.40
2018-11-12T09:05:14.538Z,97.10
2018-11-12T09:07:44.202Z,97.10
2018-11-12T09:10:15.843Z,96.90
2018-11-12T09:12:44.570Z,96.80
2018-11-12T09:15:13.291Z,96.50
2018-11-12T09:17:42.314Z,96.50
2018-11-12T09:20:12.988Z,96.20
2018-11-12T09:22:41.200Z,96.10
2018-11-12T09:25:11.977Z,95.90
2018-11-12T09:27:40.334Z,95.40
2018-11-12T09:30:18.168Z,95.40
2018-11-12T09:32:46.830Z,95.50
2018-11-12T09:35:18.457Z,95.50
2018-11-12T09:37:48.859Z,95.30
2018-11-12T09:40:23.397Z,95.00
2018-11-12T09:42:51.697Z,94.90
2018-11-12T09:45:20.043Z,94.70
2018-11-12T09:47:48.247Z,94.30
2018-11-12T09:50:18.263Z,94.10
2018-11-12T09:52:49.512Z,93.90
2018-11-12T09:55:18.742Z,93.90
2018-11-12T09:57:49.621Z,94.00
2018-11-12T10:00:19.081Z,93.40
2018-11-12T10:02:49.781Z,93.10
2018-11-12T10:05:19.227Z,92.90
2018-11-12T10:07:49.778Z,93.20
2018-11-12T10:10:29.282Z,93.00
2018-11-12T10:12:57.395Z,92.20
2018-11-12T10:15:26.677Z,91.70
2018-11-12T10:17:54.954Z,91.80
2018-11-12T10:20:21.344Z,91.50
2018-11-12T10:22:50.104Z,91.70
2018-11-12T10:25:19.486Z,91.40
2018-11-12T10:27:48.209Z,91.60
2018-11-12T10:30:16.603Z,91.90
2018-11-12T10:32:44.995Z,92.00
2018-11-12T10:35:13.287Z,92.10
2018-11-12T10:37:42.374Z,92.20
2018-11-12T10:40:14.123Z,91.80
2018-11-12T10:42:42.893Z,91.70
2018-11-12T10:45:11.152Z,91.70
2018-11-12T10:47:39.421Z,92.00
2018-11-12T10:50:08.129Z,91.50
2018-11-12T10:52:39.358Z,91.60
2018-11-12T10:55:10.280Z,91.80
2018-11-12T10:57:38.613Z,92.00
2018-11-12T11:00:15.410Z,92.30
2018-11-12T11:02:50.007Z,92.30
2018-11-12T11:05:18.427Z,92.50
2018-11-12T11:07:46.773Z,92.70
2018-11-12T11:10:15.076Z,92.90
2018-11-12T11:12:44.277Z,93.20
2018-11-12T11:15:12.596Z,93.20
2018-11-12T11:17:40.820Z,93.30
2018-11-12T11:20:15.730Z,93.10
2018-11-12T11:22:44.784Z,93.30
2018-11-12T11:25:13.018Z,93.20
2018-11-12T11:27:41.488Z,93.10
2018-11-12T11:30:11.874Z,92.50
2018-11-12T11:32:40.552Z,92.50
2018-11-12T11:35:09.537Z,92.10
2018-11-12T11:37:37.768Z,92.00
2018-11-12T11:40:08.193Z,91.60
2018-11-12T11:42:36.566Z,91.50
2018-11-12T11:45:05.912Z,91.20
2018-11-12T11:47:34.137Z,91.20
2018-11-12T11:50:02.475Z,90.70
2018-11-12T11:52:31.075Z,90.10
2018-11-12T11:54:59.648Z,90.10
2018-11-12T11:57:28.076Z,89.60
2018-11-12T11:59:56.641Z,89.20
2018-11-12T12:02:25.273Z,88.50
2018-11-12T12:04:53.626Z,87.60
2018-11-12T12:07:21.970Z,87.20
2018-11-12T12:09:50.380Z,86.40
2018-11-12T12:12:18.840Z,86.20
2018-11-12T12:14:47.238Z,85.20
2018-11-12T12:17:15.528Z,85.00
2018-11-12T12:19:43.819Z,84.60
2018-11-12T12:22:12.130Z,84.20
2018-11-12T12:24:41.013Z,83.30
2018-11-12T12:27:09.338Z,82.80
2018-11-12T12:29:38.461Z,83.80
2018-11-12T12:32:06.783Z,84.50
2018-11-12T12:34:35.033Z,84.20
2018-11-12T12:37:03.324Z,84.30
2018-11-12T12:39:31.825Z,83.60
2018-11-12T12:42:00.097Z,84.10
2018-11-12T12:44:35.959Z,83.90
2018-11-12T12:47:05.868Z,83.90
2018-11-12T12:49:35.658Z,83.70
2018-11-12T12:52:05.000Z,83.30
2018-11-12T12:54:33.419Z,82.10
2018-11-12T12:57:01.819Z,81.50
2018-11-12T12:59:30.130Z,80.40
2018-11-12T13:01:58.517Z,79.30
2018-11-12T13:04:26.807Z,79.60
2018-11-12T13:06:55.149Z,79.20
2018-11-12T13:09:24.297Z,78.50
2018-11-12T13:11:52.643Z,77.30
2018-11-12T13:14:20.977Z,76.50
2018-11-12T13:16:49.315Z,76.40
2018-11-12T13:19:17.629Z,76.10
2018-11-12T13:21:45.864Z,75.10
2018-11-12T13:24:14.213Z,74.20
2018-11-12T13:26:42.447Z,73.20
2018-11-12T13:29:10.783Z,73.10
2018-11-12T13:31:39.315Z,72.50
2018-11-12T13:34:07.759Z,73.00
2018-11-12T13:36:35.989Z,73.00
2018-11-12T13:39:07.525Z,73.70
2018-11-12T13:41:35.744Z,74.60
2018-11-12T13:44:04.005Z,75.60
2018-11-12T13:46:37.831Z,76.60
2018-11-12T13:49:06.448Z,76.90
2018-11-12T13:51:34.638Z,77.20
2018-11-12T13:54:03.106Z,77.30
2018-11-12T13:56:31.476Z,77.90
2018-11-12T13:58:59.714Z,78.20
2018-11-12T14:01:27.912Z,78.60
2018-11-12T14:03:56.112Z,79.70
2018-11-12T14:06:24.381Z,79.50
2018-11-12T14:08:52.777Z,80.30
2018-11-12T14:11:21.010Z,80.40
2018-11-12T14:13:49.458Z,80.50
2018-11-12T14:16:18.092Z,81.30
2018-11-12T14:18:46.370Z,81.90
2018-11-12T14:21:14.846Z,82.60
2018-11-12T14:23:43.071Z,83.10
2018-11-12T14:26:11.450Z,83.60
2018-11-12T14:28:39.889Z,83.70
2018-11-12T14:31:07.862Z,84.00
2018-11-12T14:33:36.122Z,84.40
2018-11-12T14:36:04.421Z,85.10
2018-11-12T14:38:32.618Z,85.70
2018-11-12T14:41:00.856Z,86.00
2018-11-12T14:43:29.132Z,86.80
2018-11-12T14:45:57.413Z,86.90
2018-11-12T14:48:25.712Z,87.20
2018-11-12T14:50:53.963Z,87.40
2018-11-12T14:53:22.240Z,87.70
2018-11-12T14:55:50.458Z,88.00
2018-11-12T14:58:18.696Z,88.40
2018-11-12T15:00:46.868Z,88.80
2018-11-12T15:03:15.084Z,89.00
2018-11-12T15:05:43.458Z,89.20
2018-11-12T15:08:11.628Z,89.50
2018-11-12T15:10:39.940Z,89.50
2018-11-12T15:13:08.178Z,89.70
2018-11-12T15:15:36.432Z,89.80
2018-11-12T15:18:04.630Z,90.10
2018-11-12T15:20:32.839Z,90.30
2018-11-12T15:23:01.094Z,90.60
2018-11-12T15:25:29.346Z,90.70
2018-11-12T15:27:57.546Z,90.80
2018-11-12T15:30:26.026Z,90.80
2018-11-12T15:32:55.280Z,91.10
2018-11-12T15:35:23.550Z,91.10
2018-11-12T15:37:52.256Z,91.20
2018-11-12T15:40:20.652Z,91.50
2018-11-12T15:42:48.970Z,91.60
2018-11-12T15:45:19.041Z,91.70
2018-11-12T15:47:47.826Z,91.80
2018-11-12T15:50:22.013Z,91.70
2018-11-12T15:52:50.243Z,91.70
2018-11-12T15:55:18.558Z,91.80
2018-11-12T15:57:46.870Z,91.80
2018-11-12T16:00:16.183Z,91.70
2018-11-12T16:02:44.780Z,91.80
2018-11-12T16:05:13.525Z,91.80
2018-11-12T16:07:42.027Z,91.80
2018-11-12T16:10:13.805Z,91.80
2018-11-12T16:12:42.413Z,92.00
2018-11-12T16:15:12.215Z,92.00
2018-11-12T16:17:41.202Z,92.00
2018-11-12T16:20:13.048Z,92.10
2018-11-12T16:22:41.525Z,92.10
2018-11-12T16:25:09.783Z,92.00
2018-11-12T16:27:38.355Z,92.00
2018-11-12T16:30:07.653Z,91.90
2018-11-12T16:32:36.089Z,91.70
2018-11-12T16:35:05.199Z,91.90
2018-11-12T16:37:33.426Z,91.90
2018-11-12T16:40:01.706Z,91.80
2018-11-12T16:42:29.901Z,91.80
2018-11-12T16:44:58.147Z,91.90
2018-11-12T16:47:26.613Z,91.70
2018-11-12T16:49:55.019Z,91.60
2018-11-12T16:52:23.236Z,91.50
2018-11-12T16:54:51.655Z,91.60
2018-11-12T16:57:19.897Z,91.50
2018-11-12T16:59:48.133Z,91.50
2018-11-12T17:02:16.428Z,91.60
2018-11-12T17:04:44.657Z,91.70
2018-11-12T17:07:12.870Z,91.80
2018-11-12T17:09:41.111Z,91.80
2018-11-12T17:12:09.474Z,91.70
2018-11-12T17:14:37.723Z,91.70
2018-11-12T17:17:06.246Z,91.80
2018-11-12T17:19:34.477Z,92.10
2018-11-12T17:22:02.716Z,91.80
2018-11-12T17:24:30.955Z,91.80
2018-11-12T17:26:59.188Z,91.70
2018-11-12T17:29:27.372Z,91.70
2018-11-12T17:31:55.605Z,91.70
2018-11-12T17:34:23.856Z,91.80
2018-11-12T17:36:52.036Z,91.80
2018-11-12T17:39:20.288Z,91.70
2018-11-12T17:41:48.603Z,91.50
2018-11-12T17:44:16.802Z,91.60
2018-11-12T17:46:45.068Z,91.70
2018-11-12T17:49:13.273Z,91.60
2018-11-12T17:51:41.523Z,91.60
2018-11-12T17:54:09.872Z,91.60
2018-11-12T17:56:38.014Z,91.60
2018-11-12T17:59:06.352Z,91.70
2018-11-12T18:01:34.730Z,91.60
2018-11-12T18:04:02.933Z,91.50
2018-11-12T18:06:31.264Z,91.60
2018-11-12T18:08:59.499Z,91.40
2018-11-12T18:11:27.941Z,91.50
2018-11-12T18:13:56.340Z,91.30
2018-11-12T18:16:24.540Z,91.30
2018-11-12T18:18:52.797Z,91.20
2018-11-12T18:21:21.064Z,91.40
2018-11-12T18:23:49.308Z,91.20
2018-11-12T18:26:17.469Z,91.30
2018-11-12T18:28:45.781Z,91.30
2018-11-12T18:31:14.340Z,91.50
2018-11-12T18:33:42.519Z,91.60
2018-11-12T18:36:10.728Z,91.30
2018-11-12T18:38:39.201Z,91.30
2018-11-12T18:41:07.611Z,91.50
2018-11-12T18:43:35.959Z,91.50
2018-11-12T18:46:04.309Z,91.60
2018-11-12T18:48:32.513Z,91.40
2018-11-12T18:51:00.795Z,91.50
2018-11-12T18:53:28.995Z,91.50
2018-11-12T18:55:57.265Z,91.50
2018-11-12T18:58:25.618Z,91.60
2018-11-12T19:00:53.893Z,91.60
2018-11-12T19:03:22.074Z,91.60
2018-11-12T19:05:50.301Z,91.60
2018-11-12T19:08:18.527Z,91.60
2018-11-12T19:10:46.791Z,91.50
2018-11-12T19:13:15.003Z,91.50
2018-11-12T19:15:43.280Z,91.60
2018-11-12T19:18:12.912Z,91.70
2018-11-12T19:20:41.135Z,91.80
2018-11-12T19:23:09.440Z,91.70
2018-11-12T19:25:37.758Z,91.70
2018-11-12T19:28:06.645Z,91.70
2018-11-12T19:30:34.949Z,91.80
2018-11-12T19:33:03.310Z,91.80
2018-11-12T19:35:32.809Z,91.90
2018-11-12T19:38:01.254Z,92.00
2018-11-12T19:40:30.697Z,92.00
2018-11-12T19:42:59.190Z,92.30
2018-11-12T19:45:27.431Z,92.00
2018-11-12T19:47:55.970Z,92.00
2018-11-12T19:50:26.013Z,91.90
2018-11-12T19:52:55.600Z,92.10
2018-11-12T19:55:23.896Z,92.40
2018-11-12T19:57:52.241Z,92.20
2018-11-12T20:00:23.127Z,91.90
2018-11-12T20:02:52.655Z,92.20
2018-11-12T20:05:21.008Z,92.20
2018-11-12T20:07:49.275Z,92.10
2018-11-12T20:10:18.880Z,92.00
2018-11-12T20:12:47.199Z,92.10
2018-11-12T20:15:16.990Z,92.10
2018-11-12T20:17:46.172Z,92.10
2018-11-12T20:20:19.016Z,92.00
2018-11-12T20:22:47.728Z,91.90
2018-11-12T20:25:17.067Z,91.80
2018-11-12T20:27:45.743Z,91.70
2018-11-12T20:30:34.590Z,91.70
2018-11-12T20:33:03.106Z,91.60
2018-11-12T20:35:31.420Z,91.60
2018-11-12T20:37:59.779Z,91.70
2018-11-12T20:40:28.003Z,91.70
2018-11-12T20:42:56.172Z,91.70
2018-11-12T20:45:26.116Z,91.50
2018-11-12T20:47:55.949Z,91.40
2018-11-12T20:50:24.390Z,91.20
2018-11-12T20:52:52.746Z,91.10
2018-11-12T20:55:21.135Z,91.20
2018-11-12T20:57:49.429Z,91.20
2018-11-12T21:00:19.670Z,91.10
2018-11-12T21:02:49.450Z,91.10
2018-11-12T21:05:18.944Z,91.20
2018-11-12T21:07:47.192Z,91.20
2018-11-12T21:10:16.821Z,91.10
2018-11-12T21:12:45.775Z,91.00
2018-11-12T21:15:15.244Z,91.00
2018-11-12T21:17:44.014Z,90.90
2018-11-12T21:20:20.328Z,91.00
2018-11-12T21:22:48.572Z,90.90
2018-11-12T21:25:18.257Z,90.70
2018-11-12T21:27:46.550Z,90.60
2018-11-12T21:30:17.769Z,90.70
2018-11-12T21:32:46.291Z,90.70
2018-11-12T21:35:14.866Z,90.70
2018-11-12T21:37:43.346Z,90.70
2018-11-12T21:40:14.870Z,90.60
2018-11-12T21:42:43.092Z,90.60
2018-11-12T21:45:12.954Z,90.50
2018-11-12T21:47:41.790Z,90.60
2018-11-12T21:50:11.921Z,90.70
2018-11-12T21:52:40.043Z,90.50
2018-11-12T21:55:09.420Z,90.80
2018-11-12T21:57:37.880Z,90.50
2018-11-12T22:00:12.719Z,90.60
2018-11-12T22:02:40.892Z,90.50
2018-11-12T22:05:09.367Z,90.40
2018-11-12T22:07:37.923Z,90.40
2018-11-12T22:10:07.968Z,90.50
2018-11-12T22:12:36.223Z,90.50
2018-11-12T22:15:04.688Z,90.30
2018-11-12T22:17:32.907Z,90.30
2018-11-12T22:20:01.130Z,90.20
2018-11-12T22:22:29.321Z,90.20
2018-11-12T22:24:57.503Z,90.20
2018-11-12T22:27:25.930Z,90.10
2018-11-12T22:29:54.143Z,90.20
2018-11-12T22:32:22.549Z,90.10
2018-11-12T22:34:50.759Z,90.00
2018-11-12T22:37:18.996Z,90.00
2018-11-12T22:39:47.210Z,89.80
2018-11-12T22:42:15.499Z,89.80
2018-11-12T22:44:43.685Z,90.00
2018-11-12T22:47:12.024Z,89.50
2018-11-12T22:49:40.198Z,90.00
2018-11-12T22:52:08.470Z,90.00
2018-11-12T22:54:37.885Z,90.10
2018-11-12T22:57:06.778Z,90.10
2018-11-12T22:59:40.286Z,90.30
2018-11-12T23:02:09.116Z,90.20
2018-11-12T23:04:37.719Z,90.70
2018-11-12T23:07:06.089Z,90.50
2018-11-12T23:09:34.748Z,90.50
2018-11-12T23:12:02.992Z,90.50
2018-11-12T23:14:31.397Z,90.50
2018-11-12T23:17:00.141Z,90.50
2018-11-12T23:19:29.317Z,90.70
2018-11-12T23:21:57.801Z,90.80
2018-11-12T23:24:27.306Z,90.90
2018-11-12T23:26:55.595Z,91.00
2018-11-12T23:29:28.885Z,90.90
2018-11-12T23:31:57.163Z,91.00
2018-11-12T23:34:26.779Z,91.10
2018-11-12T23:36:55.033Z,91.00
2018-11-12T23:39:24.573Z,91.00
